createdAt,value
2017-05-09T00:00:45.190Z,5.54
2017-05-09T00:01:45.761Z,5.56
2017-05-09T00:02:46.332Z,5.62
2017-05-09T00:03:46.903Z,5.72
2017-05-09T00:04:47.475Z,5.72
2017-05-09T00:05:48.043Z,5.76
2017-05-09T00:06:48.614Z,5.76
2017-05-09T00:07:49.184Z,5.68
2017-05-09T00:08:49.754Z,5.61
2017-05-09T00:09:50.324Z,5.53
2017-05-09T00:10:50.895Z,5.50
2017-05-09T00:11:51.466Z,5.48
2017-05-09T00:12:52.035Z,5.33
2017-05-09T00:13:52.605Z,5.33
2017-05-09T00:14:53.174Z,5.36
2017-05-09T00:15:53.744Z,5.43
2017-05-09T00:16:54.314Z,5.30
2017-05-09T00:17:54.915Z,5.28
2017-05-09T00:18:55.468Z,5.39
2017-05-09T00:19:56.039Z,5.38
2017-05-09T00:20:56.612Z,5.46
2017-05-09T00:21:57.180Z,5.53
2017-05-09T00:22:57.751Z,5.51
2017-05-09T00:23:58.336Z,5.50
2017-05-09T00:24:58.905Z,5.53
2017-05-09T00:25:59.479Z,5.25
2017-05-09T00:27:00.048Z,5.30
2017-05-09T00:28:00.620Z,5.21
2017-05-09T00:29:01.189Z,5.30
2017-05-09T00:30:01.759Z,5.30
2017-05-09T00:31:02.328Z,5.35
2017-05-09T00:32:02.899Z,5.35
2017-05-09T00:33:03.470Z,5.29
2017-05-09T00:34:04.038Z,5.25
2017-05-09T00:35:04.610Z,5.20
2017-05-09T00:36:05.193Z,5.17
2017-05-09T00:37:05.777Z,5.18
2017-05-09T00:38:06.346Z,5.21
2017-05-09T00:39:06.917Z,5.11
2017-05-09T00:40:07.488Z,4.99
2017-05-09T00:41:08.058Z,4.92
2017-05-09T00:42:08.629Z,5.12
2017-05-09T00:43:09.198Z,5.05
2017-05-09T00:44:09.769Z,5.10
2017-05-09T00:45:10.352Z,5.00
2017-05-09T00:46:10.923Z,5.04
2017-05-09T00:47:11.494Z,5.04
2017-05-09T00:48:12.063Z,5.04
2017-05-09T00:49:12.635Z,4.94
2017-05-09T00:50:13.204Z,4.92
2017-05-09T00:51:13.775Z,4.99
2017-05-09T00:52:14.345Z,4.86
2017-05-09T00:53:14.915Z,4.86
2017-05-09T00:54:15.483Z,5.04
2017-05-09T00:55:16.054Z,4.92
2017-05-09T00:56:16.623Z,4.93
2017-05-09T00:57:17.192Z,5.11
2017-05-09T00:58:17.762Z,5.11
2017-05-09T00:59:18.331Z,4.92
2017-05-09T01:00:18.900Z,4.90
2017-05-09T01:01:19.470Z,4.75
2017-05-09T01:02:20.040Z,4.78
2017-05-09T01:03:20.609Z,4.75
2017-05-09T01:04:21.178Z,4.74
2017-05-09T01:05:21.748Z,4.71
2017-05-09T01:06:22.319Z,4.68
2017-05-09T01:07:22.890Z,4.74
2017-05-09T01:08:23.461Z,4.59
2017-05-09T01:09:24.031Z,4.50
2017-05-09T01:10:24.603Z,4.66
2017-05-09T01:11:25.173Z,4.63
2017-05-09T01:12:25.745Z,4.63
2017-05-09T01:13:26.315Z,4.56
2017-05-09T01:14:26.884Z,4.50
2017-05-09T01:15:27.454Z,4.58
2017-05-09T01:16:28.027Z,4.42
2017-05-09T01:17:28.597Z,4.53
2017-05-09T01:18:29.181Z,4.62
2017-05-09T01:19:29.752Z,4.50
2017-05-09T01:20:30.323Z,4.58
2017-05-09T01:21:30.907Z,4.56
2017-05-09T01:22:31.476Z,4.49
2017-05-09T01:23:32.045Z,4.55
2017-05-09T01:24:32.621Z,4.45
2017-05-09T01:25:33.186Z,4.42
2017-05-09T01:26:33.755Z,4.52
2017-05-09T01:27:34.337Z,4.38
2017-05-09T01:28:34.907Z,4.38
2017-05-09T01:29:35.480Z,4.32
2017-05-09T01:30:36.046Z,4.31
2017-05-09T01:31:36.628Z,4.30
2017-05-09T01:32:37.199Z,4.31
2017-05-09T01:33:37.771Z,4.32
2017-05-09T01:34:38.341Z,4.32
2017-05-09T01:35:38.922Z,4.32
2017-05-09T01:36:39.493Z,4.30
2017-05-09T01:37:40.069Z,4.32
2017-05-09T01:38:40.634Z,4.31
2017-05-09T01:39:41.205Z,4.35
2017-05-09T01:40:41.774Z,4.42
2017-05-09T01:41:42.345Z,4.34
2017-05-09T01:42:42.914Z,4.34
2017-05-09T01:43:43.483Z,4.32
2017-05-09T01:44:44.053Z,4.32
2017-05-09T01:45:44.622Z,4.13
2017-05-09T01:46:45.190Z,4.28
2017-05-09T01:47:45.759Z,4.20
2017-05-09T01:48:46.329Z,4.14
2017-05-09T01:49:46.898Z,4.22
2017-05-09T01:50:47.468Z,4.26
2017-05-09T01:51:48.037Z,4.20
2017-05-09T01:52:48.604Z,4.24
2017-05-09T01:53:49.174Z,4.24
2017-05-09T01:54:49.746Z,4.23
2017-05-09T01:55:50.310Z,4.13
2017-05-09T01:56:50.879Z,4.12
2017-05-09T01:57:51.448Z,4.22
2017-05-09T01:58:52.017Z,4.17
2017-05-09T01:59:52.587Z,4.10
2017-05-09T02:00:53.159Z,4.17
2017-05-09T02:01:53.729Z,4.14
2017-05-09T02:02:54.311Z,4.20
2017-05-09T02:03:54.880Z,4.17
2017-05-09T02:04:55.450Z,4.28
2017-05-09T02:05:56.019Z,4.05
2017-05-09T02:06:56.589Z,4.10
2017-05-09T02:07:57.160Z,4.16
2017-05-09T02:08:57.732Z,4.19
2017-05-09T02:09:58.304Z,4.10
2017-05-09T02:10:58.872Z,4.12
2017-05-09T02:11:59.456Z,4.13
2017-05-09T02:13:00.026Z,4.23
2017-05-09T02:14:00.596Z,4.26
2017-05-09T02:15:01.166Z,4.37
2017-05-09T02:16:01.771Z,4.22
2017-05-09T02:17:02.306Z,4.08
2017-05-09T02:18:02.875Z,4.13
2017-05-09T02:19:03.459Z,4.16
2017-05-09T02:20:04.030Z,4.14
2017-05-09T02:21:04.606Z,4.04
2017-05-09T02:22:05.171Z,3.96
2017-05-09T02:23:05.742Z,4.04
2017-05-09T02:24:06.310Z,3.95
2017-05-09T02:25:06.879Z,4.02
2017-05-09T02:26:07.447Z,4.04
2017-05-09T02:27:08.016Z,4.05
2017-05-09T02:28:08.584Z,3.96
2017-05-09T02:29:09.153Z,3.92
2017-05-09T02:30:09.722Z,3.81
2017-05-09T02:31:10.291Z,3.84
2017-05-09T02:32:10.860Z,3.87
2017-05-09T02:33:11.431Z,3.86
2017-05-09T02:34:12.001Z,3.95
2017-05-09T02:35:12.578Z,4.06
2017-05-09T02:36:13.141Z,4.04
2017-05-09T02:37:13.712Z,4.05
2017-05-09T02:38:14.281Z,3.99
2017-05-09T02:39:14.852Z,3.88
2017-05-09T02:40:15.420Z,3.81
2017-05-09T02:41:15.988Z,3.98
2017-05-09T02:42:16.559Z,3.91
2017-05-09T02:43:17.130Z,4.06
2017-05-09T02:44:17.697Z,3.94
2017-05-09T02:45:18.269Z,4.02
2017-05-09T02:46:18.837Z,4.12
2017-05-09T02:47:19.407Z,4.08
2017-05-09T02:48:19.990Z,4.05
2017-05-09T02:49:20.559Z,3.98
2017-05-09T02:50:21.127Z,3.96
2017-05-09T02:51:21.696Z,3.88
2017-05-09T02:52:22.278Z,3.91
2017-05-09T02:53:22.848Z,3.87
2017-05-09T02:54:23.416Z,3.95
2017-05-09T02:55:23.986Z,3.91
2017-05-09T02:56:24.555Z,3.91
2017-05-09T02:57:25.125Z,3.76
2017-05-09T02:58:25.693Z,3.86
2017-05-09T02:59:26.276Z,3.81
2017-05-09T03:00:26.848Z,3.58
2017-05-09T03:01:27.416Z,3.55
2017-05-09T03:02:27.985Z,3.32
2017-05-09T03:03:28.554Z,3.48
2017-05-09T03:04:29.122Z,3.59
2017-05-09T03:05:29.691Z,3.70
2017-05-09T03:06:30.260Z,3.63
2017-05-09T03:07:30.842Z,3.69
2017-05-09T03:08:31.411Z,3.83
2017-05-09T03:09:31.982Z,3.96
2017-05-09T03:10:32.552Z,4.02
2017-05-09T03:11:33.121Z,4.04
2017-05-09T03:12:33.689Z,3.91
2017-05-09T03:13:34.259Z,3.84
2017-05-09T03:14:34.830Z,3.81
2017-05-09T03:15:35.414Z,3.92
2017-05-09T03:16:36.003Z,3.91
2017-05-09T03:17:36.581Z,3.88
2017-05-09T03:18:37.151Z,3.80
2017-05-09T03:19:37.721Z,3.84
2017-05-09T03:20:38.292Z,3.99
2017-05-09T03:21:38.861Z,3.84
2017-05-09T03:22:39.433Z,3.83
2017-05-09T03:23:40.001Z,3.68
2017-05-09T03:24:40.570Z,3.63
2017-05-09T03:25:41.139Z,3.62
2017-05-09T03:26:41.713Z,3.60
2017-05-09T03:27:42.280Z,3.73
2017-05-09T03:28:42.849Z,3.69
2017-05-09T03:29:43.417Z,3.60
2017-05-09T03:30:44.001Z,3.74
2017-05-09T03:31:44.570Z,3.81
2017-05-09T03:32:45.151Z,3.74
2017-05-09T03:33:45.721Z,3.65
2017-05-09T03:34:46.293Z,3.58
2017-05-09T03:35:46.860Z,3.56
2017-05-09T03:36:47.429Z,3.65
2017-05-09T03:37:47.999Z,3.59
2017-05-09T03:38:48.569Z,3.45
2017-05-09T03:39:49.136Z,3.42
2017-05-09T03:40:49.705Z,3.44
2017-05-09T03:41:50.273Z,3.40
2017-05-09T03:42:50.844Z,3.28
2017-05-09T03:43:51.415Z,3.41
2017-05-09T03:44:51.989Z,3.37
2017-05-09T03:45:52.556Z,3.47
2017-05-09T03:46:53.125Z,3.42
2017-05-09T03:47:53.699Z,3.42
2017-05-09T03:48:54.269Z,3.29
2017-05-09T03:49:54.841Z,3.56
2017-05-09T03:50:55.411Z,3.28
2017-05-09T03:51:55.994Z,3.25
2017-05-09T03:52:56.565Z,3.18
2017-05-09T03:53:57.135Z,3.22
2017-05-09T03:54:57.705Z,3.22
2017-05-09T03:55:58.273Z,3.28
2017-05-09T03:56:58.842Z,3.32
2017-05-09T03:57:59.417Z,3.28
2017-05-09T03:58:59.985Z,3.19
2017-05-09T04:00:00.555Z,3.37
2017-05-09T04:01:01.125Z,3.32
2017-05-09T04:02:01.696Z,3.26
2017-05-09T04:03:02.267Z,3.21
2017-05-09T04:04:02.834Z,3.25
2017-05-09T04:05:03.418Z,3.23
2017-05-09T04:06:03.987Z,3.29
2017-05-09T04:07:04.558Z,3.34
2017-05-09T04:08:05.126Z,3.36
2017-05-09T04:09:05.695Z,3.45
2017-05-09T04:10:06.266Z,3.32
2017-05-09T04:11:06.847Z,3.48
2017-05-09T04:12:07.417Z,3.40
2017-05-09T04:13:07.985Z,3.53
2017-05-09T04:14:08.556Z,3.48
2017-05-09T04:15:09.126Z,3.42
2017-05-09T04:16:09.696Z,3.45
2017-05-09T04:17:10.269Z,3.32
2017-05-09T04:18:10.842Z,3.51
2017-05-09T04:19:11.427Z,3.58
2017-05-09T04:20:11.999Z,3.66
2017-05-09T04:21:12.584Z,3.77
2017-05-09T04:22:13.155Z,3.86
2017-05-09T04:23:13.739Z,3.84
2017-05-09T04:24:14.312Z,3.69
2017-05-09T04:25:14.882Z,3.68
2017-05-09T04:26:15.456Z,3.66
2017-05-09T04:27:16.041Z,3.81
2017-05-09T04:28:16.612Z,3.63
2017-05-09T04:29:17.182Z,3.66
2017-05-09T04:30:17.752Z,3.65
2017-05-09T04:31:18.338Z,3.60
2017-05-09T04:32:18.909Z,3.81
2017-05-09T04:33:19.478Z,3.65
2017-05-09T04:34:20.050Z,3.81
2017-05-09T04:35:20.621Z,3.77
2017-05-09T04:36:21.194Z,3.80
2017-05-09T04:37:21.779Z,3.73
2017-05-09T04:38:22.352Z,3.74
2017-05-09T04:39:22.922Z,3.66
2017-05-09T04:40:23.492Z,3.68
2017-05-09T04:41:24.063Z,3.73
2017-05-09T04:42:24.649Z,3.73
2017-05-09T04:43:25.220Z,3.76
2017-05-09T04:44:25.789Z,3.94
2017-05-09T04:45:26.361Z,3.87
2017-05-09T04:46:26.936Z,3.76
2017-05-09T04:47:27.506Z,3.78
2017-05-09T04:48:28.081Z,3.88
2017-05-09T04:49:28.653Z,3.92
2017-05-09T04:50:29.227Z,4.12
2017-05-09T04:51:29.801Z,4.13
2017-05-09T04:52:30.373Z,3.94
2017-05-09T04:53:30.951Z,3.99
2017-05-09T04:54:31.519Z,4.02
2017-05-09T04:55:32.103Z,4.20
2017-05-09T04:56:32.675Z,4.13
2017-05-09T04:57:33.248Z,4.19
2017-05-09T04:58:33.820Z,4.16
2017-05-09T04:59:34.391Z,4.14
2017-05-09T05:00:34.962Z,4.19
2017-05-09T05:01:35.548Z,4.17
2017-05-09T05:02:36.119Z,4.32
2017-05-09T05:03:36.705Z,4.32
2017-05-09T05:04:37.276Z,4.32
2017-05-09T05:05:37.848Z,4.40
2017-05-09T05:06:38.421Z,4.38
2017-05-09T05:07:38.992Z,4.41
2017-05-09T05:08:39.566Z,4.59
2017-05-09T05:09:40.139Z,4.70
2017-05-09T05:10:40.725Z,4.67
2017-05-09T05:11:41.296Z,4.68
2017-05-09T05:12:41.882Z,4.78
2017-05-09T05:13:42.453Z,4.86
2017-05-09T05:14:43.024Z,4.92
2017-05-09T05:15:43.599Z,5.04
2017-05-09T05:16:44.173Z,4.99
2017-05-09T05:17:44.746Z,4.93
2017-05-09T05:18:45.317Z,4.96
2017-05-09T05:19:45.890Z,4.82
2017-05-09T05:20:46.466Z,4.89
2017-05-09T05:21:47.052Z,4.93
2017-05-09T05:22:47.626Z,4.99
2017-05-09T05:23:48.212Z,4.86
2017-05-09T05:24:48.786Z,4.93
2017-05-09T05:25:49.358Z,4.93
2017-05-09T05:26:49.931Z,5.04
2017-05-09T05:27:50.505Z,5.00
2017-05-09T05:28:51.077Z,5.05
2017-05-09T05:29:51.652Z,5.15
2017-05-09T05:30:52.226Z,5.11
2017-05-09T05:31:52.800Z,5.23
2017-05-09T05:32:53.376Z,5.23
2017-05-09T05:33:53.947Z,5.26
2017-05-09T05:34:54.520Z,5.23
2017-05-09T05:35:55.095Z,5.26
2017-05-09T05:36:55.669Z,5.41
2017-05-09T05:37:56.242Z,5.57
2017-05-09T05:38:56.815Z,5.56
2017-05-09T05:39:57.391Z,5.64
2017-05-09T05:40:57.964Z,5.59
2017-05-09T05:41:58.538Z,5.64
2017-05-09T05:42:59.108Z,5.56
2017-05-09T05:43:59.681Z,5.61
2017-05-09T05:45:00.255Z,5.64
2017-05-09T05:46:00.828Z,5.69
2017-05-09T05:47:01.400Z,5.69
2017-05-09T05:48:01.974Z,5.89
2017-05-09T05:49:02.546Z,5.97
2017-05-09T05:50:03.127Z,6.05
2017-05-09T05:51:03.706Z,6.05
2017-05-09T05:52:04.281Z,5.94
2017-05-09T05:53:04.852Z,5.93
2017-05-09T05:54:05.428Z,6.14
2017-05-09T05:55:06.000Z,6.16
2017-05-09T05:56:06.573Z,6.16
2017-05-09T05:57:07.148Z,6.27
2017-05-09T05:58:07.719Z,6.31
2017-05-09T05:59:08.294Z,6.28
2017-05-09T06:00:08.869Z,6.39
2017-05-09T06:01:09.441Z,6.27
2017-05-09T06:02:10.015Z,6.27
2017-05-09T06:03:10.590Z,6.28
2017-05-09T06:04:11.160Z,6.24
2017-05-09T06:05:11.735Z,6.30
2017-05-09T06:06:12.323Z,6.24
2017-05-09T06:07:12.895Z,6.33
2017-05-09T06:08:13.480Z,6.26
2017-05-09T06:09:14.053Z,6.36
2017-05-09T06:10:14.626Z,6.48
2017-05-09T06:11:15.201Z,6.48
2017-05-09T06:12:15.774Z,6.67
2017-05-09T06:13:16.348Z,6.66
2017-05-09T06:14:16.936Z,6.70
2017-05-09T06:15:17.510Z,6.62
2017-05-09T06:16:18.083Z,6.60
2017-05-09T06:17:18.658Z,6.63
2017-05-09T06:18:19.231Z,6.69
2017-05-09T06:19:19.805Z,6.93
2017-05-09T06:20:20.377Z,7.05
2017-05-09T06:21:20.952Z,6.92
2017-05-09T06:22:21.527Z,6.99
2017-05-09T06:23:22.101Z,7.07
2017-05-09T06:24:22.675Z,7.07
2017-05-09T06:25:23.247Z,7.03
2017-05-09T06:26:23.822Z,6.96
2017-05-09T06:27:24.398Z,6.95
2017-05-09T06:28:24.972Z,6.89
2017-05-09T06:29:25.544Z,7.02
2017-05-09T06:30:26.117Z,7.17
2017-05-09T06:31:26.692Z,7.23
2017-05-09T06:32:27.267Z,7.35
2017-05-09T06:33:27.840Z,7.43
2017-05-09T06:34:28.413Z,7.45
2017-05-09T06:35:28.986Z,7.48
2017-05-09T06:36:29.561Z,7.47
2017-05-09T06:37:30.149Z,7.56
2017-05-09T06:38:30.724Z,7.60
2017-05-09T06:39:31.298Z,7.58
2017-05-09T06:40:31.872Z,7.58
2017-05-09T06:41:32.445Z,7.54
2017-05-09T06:42:33.019Z,7.69
2017-05-09T06:43:33.595Z,7.82
2017-05-09T06:44:34.169Z,7.85
2017-05-09T06:45:34.743Z,7.85
2017-05-09T06:46:35.317Z,8.18
2017-05-09T06:47:35.893Z,8.03
2017-05-09T06:48:36.468Z,8.05
2017-05-09T06:49:37.044Z,8.16
2017-05-09T06:50:37.617Z,8.19
2017-05-09T06:51:38.206Z,8.23
2017-05-09T06:52:38.793Z,8.53
2017-05-09T06:53:39.366Z,8.58
2017-05-09T06:54:39.943Z,8.41
2017-05-09T06:55:40.516Z,8.41
2017-05-09T06:56:41.091Z,8.44
2017-05-09T06:57:41.666Z,8.44
2017-05-09T06:58:42.240Z,8.34
2017-05-09T06:59:42.814Z,8.33
2017-05-09T07:00:43.388Z,8.85
2017-05-09T07:01:43.964Z,9.21
2017-05-09T07:02:44.541Z,8.95
2017-05-09T07:03:45.113Z,8.79
2017-05-09T07:04:45.697Z,9.03
2017-05-09T07:05:46.275Z,9.11
2017-05-09T07:06:46.849Z,9.18
2017-05-09T07:07:47.437Z,9.19
2017-05-09T07:08:48.013Z,8.94
2017-05-09T07:09:48.588Z,8.95
2017-05-09T07:10:49.167Z,9.08
2017-05-09T07:11:49.740Z,9.04
2017-05-09T07:12:50.315Z,9.19
2017-05-09T07:13:50.889Z,8.85
2017-05-09T07:14:51.463Z,8.97
2017-05-09T07:15:52.038Z,9.29
2017-05-09T07:16:52.615Z,9.23
2017-05-09T07:17:53.189Z,9.19
2017-05-09T07:18:53.767Z,8.89
2017-05-09T07:19:54.341Z,9.04
2017-05-09T07:20:54.917Z,9.39
2017-05-09T07:21:55.492Z,9.56
2017-05-09T07:22:56.069Z,9.37
2017-05-09T07:23:56.661Z,9.41
2017-05-09T07:24:57.236Z,9.66
2017-05-09T07:25:57.812Z,9.69
2017-05-09T07:26:58.388Z,9.66
2017-05-09T07:27:58.968Z,9.31
2017-05-09T07:28:59.541Z,9.47
2017-05-09T07:30:00.115Z,9.59
2017-05-09T07:31:00.689Z,9.51
2017-05-09T07:32:01.273Z,9.56
2017-05-09T07:33:01.843Z,9.62
2017-05-09T07:34:02.433Z,9.92
2017-05-09T07:35:03.007Z,9.95
2017-05-09T07:36:03.584Z,9.84
2017-05-09T07:37:04.158Z,9.50
2017-05-09T07:38:04.733Z,9.54
2017-05-09T07:39:05.324Z,9.55
2017-05-09T07:40:05.902Z,9.47
2017-05-09T07:41:06.477Z,9.79
2017-05-09T07:42:07.055Z,9.95
2017-05-09T07:43:07.630Z,9.87
2017-05-09T07:44:08.208Z,10.01
2017-05-09T07:45:08.786Z,10.56
2017-05-09T07:46:09.363Z,10.72
2017-05-09T07:47:09.939Z,10.68
2017-05-09T07:48:10.519Z,10.41
2017-05-09T07:49:11.096Z,10.60
2017-05-09T07:50:11.675Z,10.69
2017-05-09T07:51:12.251Z,10.74
2017-05-09T07:52:12.827Z,10.81
2017-05-09T07:53:13.406Z,11.11
2017-05-09T07:54:13.985Z,10.59
2017-05-09T07:55:14.564Z,10.25
2017-05-09T07:56:15.143Z,10.20
2017-05-09T07:57:15.720Z,10.02
2017-05-09T07:58:16.299Z,10.19
2017-05-09T07:59:16.877Z,10.37
2017-05-09T08:00:17.454Z,10.25
2017-05-09T08:01:18.032Z,10.31
2017-05-09T08:02:18.610Z,10.56
2017-05-09T08:03:19.203Z,10.41
2017-05-09T08:04:19.781Z,10.17
2017-05-09T08:05:20.360Z,10.20
2017-05-09T08:06:20.936Z,10.20
2017-05-09T08:07:21.514Z,10.67
2017-05-09T08:08:22.094Z,10.97
2017-05-09T08:09:22.674Z,11.26
2017-05-09T08:10:23.249Z,11.14
2017-05-09T08:11:23.829Z,11.25
2017-05-09T08:12:24.405Z,11.37
2017-05-09T08:13:25.000Z,11.00
2017-05-09T08:14:25.561Z,11.22
2017-05-09T08:15:26.139Z,11.52
2017-05-09T08:16:26.720Z,11.08
2017-05-09T08:17:27.295Z,11.11
2017-05-09T08:18:27.885Z,11.18
2017-05-09T08:19:28.465Z,11.43
2017-05-09T08:20:29.040Z,11.29
2017-05-09T08:21:29.618Z,11.47
2017-05-09T08:22:30.198Z,11.10
2017-05-09T08:23:30.776Z,12.93
2017-05-09T08:24:31.367Z,12.93
2017-05-09T08:25:31.943Z,12.70
2017-05-09T08:26:32.536Z,12.55
2017-05-09T08:27:33.113Z,12.93
2017-05-09T08:28:33.692Z,13.13
2017-05-09T08:29:34.271Z,13.11
2017-05-09T08:30:34.850Z,13.19
2017-05-09T08:31:35.429Z,13.30
2017-05-09T08:32:36.009Z,12.85
2017-05-09T08:33:36.590Z,12.53
2017-05-09T08:34:37.164Z,13.18
2017-05-09T08:35:37.746Z,12.45
2017-05-09T08:36:38.324Z,12.37
2017-05-09T08:37:38.904Z,11.75
2017-05-09T08:38:39.483Z,11.62
2017-05-09T08:39:40.062Z,11.48
2017-05-09T08:40:40.642Z,11.36
2017-05-09T08:41:41.219Z,11.63
2017-05-09T08:42:41.799Z,12.21
2017-05-09T08:43:42.378Z,12.04
2017-05-09T08:44:42.957Z,12.15
2017-05-09T08:45:43.537Z,12.17
2017-05-09T08:46:44.115Z,12.12
2017-05-09T08:47:44.693Z,11.78
2017-05-09T08:48:45.273Z,11.43
2017-05-09T08:49:45.875Z,11.40
2017-05-09T08:50:46.441Z,10.94
2017-05-09T08:51:47.019Z,10.78
2017-05-09T08:52:47.599Z,10.71
2017-05-09T08:53:48.179Z,10.82
2017-05-09T08:54:48.758Z,11.35
2017-05-09T08:55:49.342Z,11.17
2017-05-09T08:56:49.927Z,11.81
2017-05-09T08:57:50.507Z,11.48
2017-05-09T08:58:51.086Z,11.59
2017-05-09T08:59:51.664Z,11.55
2017-05-09T09:00:52.244Z,11.86
2017-05-09T09:01:52.823Z,12.25
2017-05-09T09:02:53.402Z,12.39
2017-05-09T09:03:53.983Z,12.10
2017-05-09T09:04:54.563Z,12.10
2017-05-09T09:05:55.143Z,12.24
2017-05-09T09:06:55.723Z,11.63
2017-05-09T09:07:56.302Z,12.13
2017-05-09T09:08:56.897Z,12.15
2017-05-09T09:09:57.489Z,11.95
2017-05-09T09:10:58.069Z,12.20
2017-05-09T09:11:58.650Z,12.68
2017-05-09T09:12:59.229Z,12.55
2017-05-09T09:13:59.807Z,12.36
2017-05-09T09:15:00.389Z,12.46
2017-05-09T09:16:00.984Z,11.69
2017-05-09T09:17:01.564Z,12.04
2017-05-09T09:18:02.144Z,12.02
2017-05-09T09:19:02.722Z,12.24
2017-05-09T09:20:03.305Z,12.04
2017-05-09T09:21:03.883Z,12.02
2017-05-09T09:22:04.464Z,11.72
2017-05-09T09:23:05.044Z,11.99
2017-05-09T09:24:05.624Z,12.54
2017-05-09T09:25:06.205Z,11.94
2017-05-09T09:26:06.785Z,12.15
2017-05-09T09:27:07.367Z,12.68
2017-05-09T09:28:07.945Z,12.90
2017-05-09T09:29:08.526Z,12.86
2017-05-09T09:30:09.108Z,13.33
2017-05-09T09:31:09.686Z,13.57
2017-05-09T09:32:10.279Z,13.49
2017-05-09T09:33:10.859Z,13.59
2017-05-09T09:34:11.441Z,13.57
2017-05-09T09:35:12.023Z,12.47
2017-05-09T09:36:12.602Z,12.47
2017-05-09T09:37:13.197Z,12.82
2017-05-09T09:38:13.778Z,12.50
2017-05-09T09:39:14.358Z,13.19
2017-05-09T09:40:14.938Z,13.22
2017-05-09T09:41:15.521Z,13.72
2017-05-09T09:42:16.101Z,12.91
2017-05-09T09:43:16.684Z,13.11
2017-05-09T09:44:17.264Z,12.85
2017-05-09T09:45:17.844Z,12.57
2017-05-09T09:46:18.425Z,12.83
2017-05-09T09:47:19.003Z,13.37
2017-05-09T09:48:19.582Z,13.31
2017-05-09T09:49:20.164Z,12.79
2017-05-09T09:50:20.742Z,12.60
2017-05-09T09:51:21.336Z,12.68
2017-05-09T09:52:21.917Z,13.00
2017-05-09T09:53:22.497Z,12.45
2017-05-09T09:54:23.079Z,12.27
2017-05-09T09:55:23.659Z,12.27
2017-05-09T09:56:24.240Z,12.67
2017-05-09T09:57:24.819Z,12.90
2017-05-09T09:58:25.401Z,12.76
2017-05-09T09:59:25.980Z,12.45
2017-05-09T10:00:26.565Z,12.29
2017-05-09T10:01:27.140Z,12.68
2017-05-09T10:02:27.719Z,12.90
2017-05-09T10:03:28.298Z,13.22
2017-05-09T10:04:28.879Z,13.15
2017-05-09T10:05:29.458Z,12.98
2017-05-09T10:06:30.038Z,12.78
2017-05-09T10:07:30.617Z,12.45
2017-05-09T10:08:31.197Z,12.50
2017-05-09T10:09:31.778Z,12.82
2017-05-09T10:10:32.357Z,12.39
2017-05-09T10:11:32.935Z,12.50
2017-05-09T10:12:33.552Z,11.78
2017-05-09T10:13:34.095Z,12.10
2017-05-09T10:14:34.677Z,12.73
2017-05-09T10:15:35.256Z,12.85
2017-05-09T10:16:35.837Z,13.16
2017-05-09T10:17:36.418Z,13.01
2017-05-09T10:18:37.000Z,13.42
2017-05-09T10:19:37.580Z,13.87
2017-05-09T10:20:38.162Z,13.86
2017-05-09T10:21:38.752Z,13.68
2017-05-09T10:22:39.337Z,13.52
2017-05-09T10:23:39.917Z,13.97
2017-05-09T10:24:40.500Z,14.44
2017-05-09T10:25:41.079Z,14.50
2017-05-09T10:26:41.661Z,14.08
2017-05-09T10:27:42.242Z,14.40
2017-05-09T10:28:42.821Z,14.53
2017-05-09T10:29:43.404Z,14.18
2017-05-09T10:30:43.984Z,14.32
2017-05-09T10:31:44.565Z,14.78
2017-05-09T10:32:45.144Z,14.43
2017-05-09T10:33:45.726Z,13.77
2017-05-09T10:34:46.305Z,13.63
2017-05-09T10:35:46.886Z,12.90
2017-05-09T10:36:47.466Z,12.53
2017-05-09T10:37:48.046Z,12.43
2017-05-09T10:38:48.630Z,12.55
2017-05-09T10:39:49.209Z,12.03
2017-05-09T10:40:49.793Z,12.17
2017-05-09T10:41:50.370Z,12.20
2017-05-09T10:42:50.950Z,12.36
2017-05-09T10:43:51.529Z,12.47
2017-05-09T10:44:52.109Z,12.55
2017-05-09T10:45:52.689Z,12.94
2017-05-09T10:46:53.270Z,12.95
2017-05-09T10:47:53.851Z,13.09
2017-05-09T10:48:54.429Z,13.25
2017-05-09T10:49:55.022Z,13.16
2017-05-09T10:50:55.602Z,13.11
2017-05-09T10:51:56.183Z,13.28
2017-05-09T10:52:56.762Z,13.18
2017-05-09T10:53:57.341Z,12.76
2017-05-09T10:54:57.922Z,12.53
2017-05-09T10:55:58.504Z,12.98
2017-05-09T10:56:59.083Z,13.12
2017-05-09T10:57:59.663Z,13.47
2017-05-09T10:59:00.250Z,13.95
2017-05-09T11:00:00.842Z,14.47
2017-05-09T11:01:01.424Z,14.41
2017-05-09T11:02:02.003Z,14.29
2017-05-09T11:03:02.585Z,14.41
2017-05-09T11:04:03.167Z,14.44
2017-05-09T11:05:03.747Z,14.89
2017-05-09T11:06:04.331Z,15.03
2017-05-09T11:07:04.911Z,14.45
2017-05-09T11:08:05.490Z,13.89
2017-05-09T11:09:06.074Z,13.86
2017-05-09T11:10:06.654Z,13.59
2017-05-09T11:11:07.247Z,13.81
2017-05-09T11:12:07.841Z,13.71
2017-05-09T11:13:08.422Z,13.42
2017-05-09T11:14:09.015Z,13.23
2017-05-09T11:15:09.594Z,13.09
2017-05-09T11:16:10.174Z,13.49
2017-05-09T11:17:10.754Z,12.95
2017-05-09T11:18:11.336Z,13.01
2017-05-09T11:19:11.917Z,12.79
2017-05-09T11:20:12.495Z,12.90
2017-05-09T11:21:13.075Z,12.67
2017-05-09T11:22:13.657Z,13.04
2017-05-09T11:23:14.254Z,13.19
2017-05-09T11:24:14.834Z,13.00
2017-05-09T11:25:15.414Z,13.18
2017-05-09T11:26:15.996Z,13.09
2017-05-09T11:27:16.576Z,13.65
2017-05-09T11:28:17.157Z,13.35
2017-05-09T11:29:17.737Z,13.33
2017-05-09T11:30:18.317Z,13.75
2017-05-09T11:31:18.899Z,13.60
2017-05-09T11:32:19.479Z,13.41
2017-05-09T11:33:20.062Z,13.30
2017-05-09T11:34:20.643Z,13.70
2017-05-09T11:35:21.243Z,13.33
2017-05-09T11:36:21.820Z,13.03
2017-05-09T11:37:22.414Z,13.00
2017-05-09T11:38:22.993Z,12.95
2017-05-09T11:39:23.574Z,12.68
2017-05-09T11:40:24.152Z,12.85
2017-05-09T11:41:24.733Z,12.82
2017-05-09T11:42:25.326Z,12.93
2017-05-09T11:43:25.914Z,13.19
2017-05-09T11:44:26.502Z,13.42
2017-05-09T11:45:27.083Z,13.74
2017-05-09T11:46:27.667Z,13.96
2017-05-09T11:47:28.246Z,14.17
2017-05-09T11:48:28.828Z,13.95
2017-05-09T11:49:29.410Z,13.87
2017-05-09T11:50:30.004Z,13.71
2017-05-09T11:51:30.584Z,14.10
2017-05-09T11:52:31.164Z,14.28
2017-05-09T11:53:31.745Z,14.25
2017-05-09T11:54:32.323Z,13.65
2017-05-09T11:55:32.904Z,13.68
2017-05-09T11:56:33.483Z,13.53
2017-05-09T11:57:34.063Z,13.30
2017-05-09T11:58:34.644Z,13.16
2017-05-09T11:59:35.224Z,13.04
2017-05-09T12:00:35.820Z,13.44
2017-05-09T12:01:36.399Z,13.38
2017-05-09T12:02:36.979Z,13.42
2017-05-09T12:03:37.558Z,13.53
2017-05-09T12:04:38.152Z,12.97
2017-05-09T12:05:38.734Z,13.08
2017-05-09T12:06:39.314Z,13.39
2017-05-09T12:07:39.895Z,13.46
2017-05-09T12:08:40.493Z,13.12
2017-05-09T12:09:41.070Z,12.95
2017-05-09T12:10:41.649Z,13.11
2017-05-09T12:11:42.228Z,12.95
2017-05-09T12:12:42.808Z,13.12
2017-05-09T12:13:43.390Z,13.00
2017-05-09T12:14:43.969Z,12.87
2017-05-09T12:15:44.554Z,13.05
2017-05-09T12:16:45.130Z,12.65
2017-05-09T12:17:45.711Z,12.78
2017-05-09T12:18:46.289Z,12.97
2017-05-09T12:19:46.868Z,13.35
2017-05-09T12:20:47.450Z,13.11
2017-05-09T12:21:48.029Z,12.97
2017-05-09T12:22:48.622Z,12.67
2017-05-09T12:23:49.204Z,12.53
2017-05-09T12:24:49.783Z,12.85
2017-05-09T12:25:50.365Z,12.86
2017-05-09T12:26:50.947Z,12.93
2017-05-09T12:27:51.527Z,12.95
2017-05-09T12:28:52.109Z,12.78
2017-05-09T12:29:52.692Z,13.15
2017-05-09T12:30:53.272Z,13.19
2017-05-09T12:31:53.852Z,12.68
2017-05-09T12:32:54.435Z,12.36
2017-05-09T12:33:55.013Z,12.76
2017-05-09T12:34:55.594Z,12.91
2017-05-09T12:35:56.177Z,12.87
2017-05-09T12:36:56.757Z,12.83
2017-05-09T12:37:57.350Z,12.87
2017-05-09T12:38:57.944Z,12.97
2017-05-09T12:39:58.523Z,13.09
2017-05-09T12:40:59.107Z,13.04
2017-05-09T12:41:59.687Z,13.47
2017-05-09T12:43:00.282Z,13.47
2017-05-09T12:44:00.862Z,13.03
2017-05-09T12:45:01.445Z,12.97
2017-05-09T12:46:02.026Z,12.90
2017-05-09T12:47:02.604Z,12.75
2017-05-09T12:48:03.196Z,12.86
2017-05-09T12:49:03.779Z,12.83
2017-05-09T12:50:04.358Z,12.90
2017-05-09T12:51:04.940Z,12.82
2017-05-09T12:52:05.519Z,13.00
2017-05-09T12:53:06.099Z,13.13
2017-05-09T12:54:06.682Z,13.09
2017-05-09T12:55:07.260Z,13.19
2017-05-09T12:56:07.840Z,12.73
2017-05-09T12:57:08.433Z,12.72
2017-05-09T12:58:09.014Z,12.86
2017-05-09T12:59:09.593Z,13.11
2017-05-09T13:00:10.176Z,13.00
2017-05-09T13:01:10.758Z,13.01
2017-05-09T13:02:11.342Z,13.09
2017-05-09T13:03:11.919Z,13.13
2017-05-09T13:04:12.502Z,12.98
2017-05-09T13:05:13.082Z,12.76
2017-05-09T13:06:13.662Z,12.40
2017-05-09T13:07:14.244Z,12.55
2017-05-09T13:08:14.822Z,12.57
2017-05-09T13:09:15.403Z,12.49
2017-05-09T13:10:15.986Z,12.82
2017-05-09T13:11:16.580Z,12.97
2017-05-09T13:12:17.161Z,12.75
2017-05-09T13:13:17.742Z,12.93
2017-05-09T13:14:18.323Z,13.01
2017-05-09T13:15:18.917Z,12.85